»·PEaware :: N4217L KBUR-KLAS

N4217L :: KBUR-KLAS

FLIGHT INFORMATION

Flight Status: Arrived
Operator: Privately registered:
United States
More flights under this callsign
Pilot: James F. (31917)
Aircraft: SOCATA TBM-900
(TBM9)
More flights by this aircraft type
Origin: KBUR Bob Hope-Burbank
United States
Destination: KLAS McCarran Intl
United States
More flights between these airports :: More routes between these airports
Route: VVERA2 DAG CRESO4
File this flight plan on PilotEdge
Remarks: ILS RWY 26R
Altitude:
(Current/Filed)
17,000ft
Speed:
(Current/Filed)
300kts
Departed: 03-Dec-20 08:03 PM
Arrived: 03-Dec-20 09:11 PM
Distance/Time
Traveled:
6789nm/1:08
Distance/Time
To Go:
Arrived

Flight Plot

Page will automatically refresh every two minutes.

Flight plan parsing failed; only flown route is shown


Map Options




Map Legend


Flown Route
Filed Route
Departure Airport
Arrival Airport
Navaid (VOR, NDB)
Fix

Horizontal Profiles

Position Reports

Time Latitude Longitude Heading Altitude Ground
Speed
03-Dec-20 19:48 34.200094 -118.358759 77 720ft 0kts
03-Dec-20 19:49 34.200094 -118.358759 77 720ft 0kts
03-Dec-20 19:50 34.200094 -118.358759 77 720ft 0kts
03-Dec-20 19:51 34.200094 -118.358759 77 720ft 0kts
03-Dec-20 19:52 34.200094 -118.358759 77 720ft 0kts
03-Dec-20 19:53 34.200094 -118.358759 77 720ft 0kts
03-Dec-20 19:54 34.200094 -118.358759 77 720ft 0kts
03-Dec-20 19:56 34.200094 -118.358759 77 720ft 0kts
03-Dec-20 19:57 34.200094 -118.358759 77 720ft 0kts
03-Dec-20 19:58 34.200094 -118.358759 77 720ft 0kts
03-Dec-20 19:59 34.197703 -118.357964 181 713ft 24kts
03-Dec-20 20:00 34.194927 -118.356571 200 700ft 10kts
03-Dec-20 20:01 34.194741 -118.356605 178 699ft 0kts
03-Dec-20 20:02 34.194595 -118.355568 349 698ft 0kts
03-Dec-20 20:03 34.198936 -118.356857 344 717ft 88kts
03-Dec-20 20:04 34.226919 -118.381405 288 2409ft 170kts
03-Dec-20 20:05 34.235506 -118.445323 279 4040ft 220kts
03-Dec-20 20:06 34.243964 -118.526322 279 4173ft 254kts
03-Dec-20 20:07 34.252849 -118.611084 279 4174ft 254kts
03-Dec-20 20:08 34.260773 -118.691335 280 5713ft 222kts
03-Dec-20 20:09 34.290188 -118.726485 61 7988ft 149kts
03-Dec-20 20:10 34.283214 -118.681247 91 10594ft 145kts
03-Dec-20 20:11 34.297623 -118.634690 65 12744ft 161kts
03-Dec-20 20:12 34.311004 -118.569005 75 14014ft 205kts
03-Dec-20 20:13 34.323411 -118.500830 71 15849ft 211kts
03-Dec-20 20:13 34.334302 -118.441049 80 16887ft 236kts
03-Dec-20 20:15 34.386620 -118.413693 337 17047ft 253kts
03-Dec-20 20:15 34.437800 -118.389068 50 17036ft 265kts
03-Dec-20 20:16 34.472891 -118.309872 64 17030ft 269kts
03-Dec-20 20:17 34.501652 -118.226008 63 17033ft 270kts
03-Dec-20 20:18 34.522522 -118.138259 75 16982ft 272kts
03-Dec-20 20:19 34.539850 -118.049134 71 17014ft 272kts
03-Dec-20 20:20 34.556622 -117.959343 71 17009ft 272kts
03-Dec-20 20:21 34.573756 -117.870015 72 17004ft 271kts
03-Dec-20 20:22 34.590777 -117.781299 72 17064ft 271kts
03-Dec-20 20:23 34.608406 -117.689573 72 17078ft 284kts
03-Dec-20 20:24 34.626345 -117.595996 72 17082ft 286kts
03-Dec-20 20:25 34.644273 -117.502074 73 17061ft 286kts
03-Dec-20 20:26 34.662194 -117.407791 73 16997ft 285kts
03-Dec-20 20:27 34.679883 -117.314295 73 16995ft 284kts
03-Dec-20 20:28 34.697492 -117.220799 73 17007ft 284kts
03-Dec-20 20:29 34.714980 -117.127573 73 17100ft 284kts
03-Dec-20 20:30 34.733841 -117.034429 66 17079ft 282kts
03-Dec-20 20:31 34.769815 -116.950648 51 17009ft 278kts
03-Dec-20 20:32 34.811222 -116.870887 53 17028ft 279kts
03-Dec-20 20:33 34.852808 -116.790700 54 17017ft 280kts
03-Dec-20 20:34 34.894228 -116.710580 54 17001ft 278kts
03-Dec-20 20:35 34.935219 -116.631084 54 17001ft 277kts
03-Dec-20 20:36 34.975316 -116.550465 59 17005ft 279kts
03-Dec-20 20:37 35.011949 -116.467327 58 16998ft 278kts
03-Dec-20 20:38 35.048748 -116.384045 58 16999ft 280kts
03-Dec-20 20:39 35.086030 -116.300622 56 17050ft 281kts
03-Dec-20 20:40 35.122831 -116.216411 57 17006ft 280kts
03-Dec-20 20:41 35.159733 -116.132530 58 16985ft 279kts
03-Dec-20 20:42 35.196344 -116.049187 58 16993ft 279kts
03-Dec-20 20:43 35.232979 -115.965600 58 16998ft 278kts
03-Dec-20 20:44 35.269413 -115.882253 59 17094ft 277kts
03-Dec-20 20:45 35.306333 -115.799274 56 17108ft 277kts
03-Dec-20 20:46 35.356019 -115.727610 44 16691ft 280kts
03-Dec-20 20:47 35.408078 -115.657377 46 15248ft 274kts
03-Dec-20 20:48 35.458984 -115.589188 47 13728ft 268kts
03-Dec-20 20:49 35.508919 -115.522307 48 12373ft 260kts
03-Dec-20 20:50 35.555835 -115.459350 48 12181ft 250kts
03-Dec-20 20:51 35.603218 -115.395735 48 12160ft 252kts
03-Dec-20 20:52 35.650495 -115.332087 48 12158ft 252kts
03-Dec-20 20:53 35.697817 -115.268249 48 12127ft 253kts
03-Dec-20 20:54 35.745430 -115.203928 48 12019ft 254kts
03-Dec-20 20:55 35.792869 -115.139697 48 12021ft 253kts
03-Dec-20 20:56 35.840627 -115.074890 48 11395ft 257kts
03-Dec-20 20:57 35.888545 -115.009775 48 10199ft 257kts
03-Dec-20 20:58 35.935927 -114.945302 47 8702ft 243kts
03-Dec-20 20:59 35.980232 -114.884927 44 7245ft 232kts
03-Dec-20 21:00 36.036439 -114.883033 335 7001ft 209kts
03-Dec-20 21:01 36.087085 -114.914761 325 7015ft 204kts
03-Dec-20 21:02 36.083696 -114.981626 250 6129ft 210kts
03-Dec-20 21:03 36.073282 -115.046167 270 4227ft 180kts
03-Dec-20 21:04 36.073707 -115.097571 269 2513ft 125kts
03-Dec-20 21:05 36.073540 -115.143014 268 2310ft 181kts
03-Dec-20 21:06 36.041354 -115.195872 219 3893ft 213kts
03-Dec-20 21:07 36.035524 -115.174562 14 3830ft 215kts
03-Dec-20 21:08 36.061059 -115.130850 86 2844ft 123kts
03-Dec-20 21:09 36.074944 -115.106360 276 2703ft 124kts
03-Dec-20 21:10 36.073680 -115.136112 281 2079ft 12kts
03-Dec-20 21:11 36.074730 -115.134495 61 2078ft 0kts
03-Dec-20 21:12 36.074730 -115.134495 61 2078ft 0kts
03-Dec-20 21:13 36.075031 -115.137804 270 2091ft 17kts
03-Dec-20 21:14 36.075013 -115.145792 270 2122ft 23kts
03-Dec-20 21:15 36.075011 -115.153700 269 2144ft 22kts
03-Dec-20 21:16 36.075007 -115.161613 270 2166ft 25kts
03-Dec-20 21:17 36.074417 -115.167566 294 2168ft 21kts
03-Dec-20 21:18 36.077785 -115.171231 7 2180ft 24kts
03-Dec-20 21:19 36.084955 -115.167265 23 2160ft 32kts
03-Dec-20 21:20 36.092130 -115.163151 24 2124ft 30kts
03-Dec-20 21:21 36.099232 -115.159635 292 2097ft 9kts
03-Dec-20 21:22 36.099468 -115.160325 291 2097ft 0kts
03-Dec-20 21:23 36.099468 -115.160325 291 2097ft 0kts
03-Dec-20 21:24 0.000408 0.013975 0 3ft 0kts

Navigation Log

Ident Type
Flight plan parsing failed, navigation log unavailable